sensor_id;sensor_type;location;lat;lon;timestamp;pressure;altitude;pressure_sealevel;temperature;humidity
9110;BME280;4590;51.462;6.692;2022-12-18T11:01:18;102364.34;;;1.56;50.63
9110;BME280;4590;51.462;6.692;2022-12-18T14:16:03;102161.44;;;1.77;49.44
9110;BME280;4590;51.462;6.692;2022-12-18T14:19:03;102157.63;;;1.92;49.31
9110;BME280;4590;51.462;6.692;2022-12-18T16:02:25;102094.56;;;1.45;51.46
9110;BME280;4590;51.462;6.692;2022-12-18T16:04:51;102105.69;;;1.17;51.71
9110;BME280;4590;51.462;6.692;2022-12-18T16:07:17;102102.09;;;1.36;51.82
9110;BME280;4590;51.462;6.692;2022-12-18T16:09:43;102105.44;;;1.38;51.64
9110;BME280;4590;51.462;6.692;2022-12-18T16:12:20;102112.13;;;1.23;51.30
9110;BME280;4590;51.462;6.692;2022-12-18T16:14:45;102104.00;;;1.16;52.85
9110;BME280;4590;51.462;6.692;2022-12-18T16:17:11;102110.22;;;1.36;52.22
9110;BME280;4590;51.462;6.692;2022-12-18T16:19:37;102093.38;;;0.95;52.60
9110;BME280;4590;51.462;6.692;2022-12-18T16:22:02;102102.38;;;1.09;53.02
9110;BME280;4590;51.462;6.692;2022-12-18T16:24:30;102097.56;;;0.97;52.88
9110;BME280;4590;51.462;6.692;2022-12-18T16:26:58;102095.06;;;1.09;52.66
9110;BME280;4590;51.462;6.692;2022-12-18T16:29:26;102096.72;;;1.03;53.12
9110;BME280;4590;51.462;6.692;2022-12-18T16:31:59;102101.31;;;1.03;53.17
9110;BME280;4590;51.462;6.692;2022-12-18T16:34:32;102097.59;;;0.91;53.67
9110;BME280;4590;51.462;6.692;2022-12-18T16:37:04;102091.72;;;0.81;53.69
9110;BME280;4590;51.462;6.692;2022-12-18T16:39:29;102080.03;;;1.00;53.68
9110;BME280;4590;51.462;6.692;2022-12-18T16:41:56;102082.56;;;0.88;53.70
9110;BME280;4590;51.462;6.692;2022-12-18T16:44:21;102077.13;;;0.95;54.28
9110;BME280;4590;51.462;6.692;2022-12-18T16:46:47;102090.50;;;0.77;54.40
9110;BME280;4590;51.462;6.692;2022-12-18T16:49:14;102085.06;;;0.83;54.57
9110;BME280;4590;51.462;6.692;2022-12-18T16:51:40;102076.53;;;0.86;54.81
9110;BME280;4590;51.462;6.692;2022-12-18T16:54:05;102089.22;;;0.66;54.61
9110;BME280;4590;51.462;6.692;2022-12-18T16:56:34;102084.66;;;0.60;55.56
9110;BME280;4590;51.462;6.692;2022-12-18T16:59:00;102073.81;;;0.86;54.97
9110;BME280;4590;51.462;6.692;2022-12-18T17:01:26;102068.19;;;0.81;55.58
9110;BME280;4590;51.462;6.692;2022-12-18T17:03:55;102062.56;;;0.56;55.86
9110;BME280;4590;51.462;6.692;2022-12-18T17:06:22;102074.25;;;0.70;55.66
9110;BME280;4590;51.462;6.692;2022-12-18T17:08:47;102065.47;;;0.81;55.59
9110;BME280;4590;51.462;6.692;2022-12-18T17:11:13;102053.38;;;0.90;55.71
9110;BME280;4590;51.462;6.692;2022-12-18T17:13:39;102047.97;;;0.90;55.53
9110;BME280;4590;51.462;6.692;2022-12-18T17:16:12;102044.19;;;1.04;55.26
9110;BME280;4590;51.462;6.692;2022-12-18T17:18:37;102049.22;;;0.68;56.39
9110;BME280;4590;51.462;6.692;2022-12-18T17:21:04;102047.38;;;0.75;56.36
9110;BME280;4590;51.462;6.692;2022-12-18T17:23:31;102051.94;;;0.88;56.25
9110;BME280;4590;51.462;6.692;2022-12-18T17:25:57;102049.88;;;0.77;56.81
9110;BME280;4590;51.462;6.692;2022-12-18T17:28:24;102049.84;;;0.83;56.58
9110;BME280;4590;51.462;6.692;2022-12-18T17:30:53;102047.09;;;1.03;56.19
9110;BME280;4590;51.462;6.692;2022-12-18T17:33:20;102027.09;;;1.04;55.95
9110;BME280;4590;51.462;6.692;2022-12-18T17:35:46;102030.00;;;1.02;56.19
9110;BME280;4590;51.462;6.692;2022-12-18T17:38:12;102034.78;;;1.14;56.19
9110;BME280;4590;51.462;6.692;2022-12-18T17:40:38;102035.44;;;1.02;56.91
9110;BME280;4590;51.462;6.692;2022-12-18T17:43:05;102039.44;;;0.93;57.45
9110;BME280;4590;51.462;6.692;2022-12-18T17:45:31;102037.72;;;0.99;56.65
9110;BME280;4590;51.462;6.692;2022-12-18T17:47:58;102046.94;;;0.72;57.97
9110;BME280;4590;51.462;6.692;2022-12-18T17:50:24;102049.19;;;1.01;57.22
9110;BME280;4590;51.462;6.692;2022-12-18T17:52:54;102055.47;;;0.55;57.94
9110;BME280;4590;51.462;6.692;2022-12-18T17:55:19;102057.16;;;0.56;59.26
9110;BME280;4590;51.462;6.692;2022-12-18T17:57:46;102074.44;;;0.68;58.71
9110;BME280;4590;51.462;6.692;2022-12-18T18:00:12;102053.81;;;0.54;59.25
9110;BME280;4590;51.462;6.692;2022-12-18T18:02:39;102057.16;;;0.63;58.93
9110;BME280;4590;51.462;6.692;2022-12-18T18:05:05;102059.44;;;0.53;59.33
9110;BME280;4590;51.462;6.692;2022-12-18T18:07:30;102056.94;;;0.51;59.86
9110;BME280;4590;51.462;6.692;2022-12-18T18:09:55;102063.19;;;0.72;58.56
9110;BME280;4590;51.462;6.692;2022-12-18T18:12:22;102051.75;;;0.63;58.75
9110;BME280;4590;51.462;6.692;2022-12-18T18:15:06;102064.03;;;0.59;59.26
9110;BME280;4590;51.462;6.692;2022-12-18T18:17:31;102065.88;;;0.52;59.58
9110;BME280;4590;51.462;6.692;2022-12-18T18:19:57;102085.91;;;0.57;59.15
9110;BME280;4590;51.462;6.692;2022-12-18T18:22:22;102074.16;;;0.17;60.23
9110;BME280;4590;51.462;6.692;2022-12-18T18:24:48;102071.72;;;0.49;59.68
9110;BME280;4590;51.462;6.692;2022-12-18T18:27:13;102072.78;;;0.67;58.88
9110;BME280;4590;51.462;6.692;2022-12-18T18:29:40;102069.25;;;0.47;59.69
9110;BME280;4590;51.462;6.692;2022-12-18T18:32:06;102079.66;;;0.57;59.12
9110;BME280;4590;51.462;6.692;2022-12-18T18:34:32;102070.03;;;0.48;59.63
9110;BME280;4590;51.462;6.692;2022-12-18T18:36:58;102070.28;;;0.53;59.47
9110;BME280;4590;51.462;6.692;2022-12-18T18:39:27;102057.34;;;0.68;59.21
9110;BME280;4590;51.462;6.692;2022-12-18T18:41:53;102065.41;;;0.02;60.23
9110;BME280;4590;51.462;6.692;2022-12-18T18:44:19;102069.63;;;0.64;59.11
9110;BME280;4590;51.462;6.692;2022-12-18T18:46:45;102074.66;;;0.54;59.25
9110;BME280;4590;51.462;6.692;2022-12-18T18:49:11;102072.16;;;0.52;59.51
9110;BME280;4590;51.462;6.692;2022-12-18T18:51:38;102070.91;;;0.68;59.05
9110;BME280;4590;51.462;6.692;2022-12-18T18:54:05;102071.94;;;0.60;59.01
9110;BME280;4590;51.462;6.692;2022-12-18T18:56:31;102075.28;;;0.62;59.11
9110;BME280;4590;51.462;6.692;2022-12-18T18:58:58;102074.00;;;0.52;59.64
9110;BME280;4590;51.462;6.692;2022-12-18T19:01:23;102061.31;;;0.52;59.61
9110;BME280;4590;51.462;6.692;2022-12-18T19:03:50;102068.38;;;0.40;59.88
9110;BME280;4590;51.462;6.692;2022-12-18T19:06:22;102061.50;;;0.64;59.30
9110;BME280;4590;51.462;6.692;2022-12-18T19:08:49;102062.97;;;0.53;59.68
9110;BME280;4590;51.462;6.692;2022-12-18T19:11:15;102065.66;;;0.27;60.60
9110;BME280;4590;51.462;6.692;2022-12-18T19:14:03;102063.78;;;0.34;60.32
9110;BME280;4590;51.462;6.692;2022-12-18T19:16:29;102059.19;;;0.21;60.31
9110;BME280;4590;51.462;6.692;2022-12-18T19:18:55;102060.91;;;0.55;59.67
9110;BME280;4590;51.462;6.692;2022-12-18T19:21:24;102064.84;;;0.66;59.40
9110;BME280;4590;51.462;6.692;2022-12-18T19:23:51;102049.84;;;0.37;59.86
9110;BME280;4590;51.462;6.692;2022-12-18T19:26:17;102057.97;;;0.63;59.49
9110;BME280;4590;51.462;6.692;2022-12-18T19:28:43;102063.19;;;0.52;59.40
9110;BME280;4590;51.462;6.692;2022-12-18T19:31:11;102054.44;;;0.37;60.04
9110;BME280;4590;51.462;6.692;2022-12-18T19:33:41;102056.53;;;0.54;59.20
9110;BME280;4590;51.462;6.692;2022-12-18T19:36:18;102039.03;;;0.57;59.58
9110;BME280;4590;51.462;6.692;2022-12-18T19:38:45;102036.94;;;0.65;59.52
9110;BME280;4590;51.462;6.692;2022-12-18T19:41:11;102031.72;;;0.77;59.28
9110;BME280;4590;51.462;6.692;2022-12-18T19:43:38;102046.31;;;0.50;59.78
9110;BME280;4590;51.462;6.692;2022-12-18T19:46:05;102030.91;;;0.50;59.72
9110;BME280;4590;51.462;6.692;2022-12-18T19:48:34;102035.06;;;0.73;59.20
9110;BME280;4590;51.462;6.692;2022-12-18T19:51:07;102031.94;;;0.76;59.05
9110;BME280;4590;51.462;6.692;2022-12-18T19:53:32;102025.47;;;0.63;59.63
9110;BME280;4590;51.462;6.692;2022-12-18T19:55:58;102027.34;;;0.76;59.36
9110;BME280;4590;51.462;6.692;2022-12-18T19:58:28;102028.63;;;0.47;59.92
9110;BME280;4590;51.462;6.692;2022-12-18T20:00:53;102035.06;;;0.73;59.19
9110;BME280;4590;51.462;6.692;2022-12-18T20:03:18;102032.94;;;0.81;59.35
9110;BME280;4590;51.462;6.692;2022-12-18T20:05:44;102039.00;;;0.50;59.78
9110;BME280;4590;51.462;6.692;2022-12-18T20:08:10;102042.34;;;0.85;58.94
9110;BME280;4590;51.462;6.692;2022-12-18T20:10:36;102048.19;;;0.69;59.28
9110;BME280;4590;51.462;6.692;2022-12-18T20:13:01;102041.28;;;0.80;59.21
9110;BME280;4590;51.462;6.692;2022-12-18T20:15:26;102047.34;;;0.88;58.77
9110;BME280;4590;51.462;6.692;2022-12-18T20:17:51;102050.84;;;0.95;58.64
9110;BME280;4590;51.462;6.692;2022-12-18T20:20:17;102048.78;;;0.97;58.81
9110;BME280;4590;51.462;6.692;2022-12-18T20:22:44;102050.25;;;0.80;58.89
9110;BME280;4590;51.462;6.692;2022-12-18T20:25:10;102045.22;;;1.03;58.30
9110;BME280;4590;51.462;6.692;2022-12-18T20:27:35;102033.59;;;0.90;59.00
9110;BME280;4590;51.462;6.692;2022-12-18T20:30:01;102037.78;;;0.40;60.65
9110;BME280;4590;51.462;6.692;2022-12-18T20:32:27;102038.16;;;0.96;59.60
9110;BME280;4590;51.462;6.692;2022-12-18T20:34:52;102044.22;;;0.72;60.08
9110;BME280;4590;51.462;6.692;2022-12-18T20:37:17;102037.97;;;0.71;60.41
9110;BME280;4590;51.462;6.692;2022-12-18T20:39:44;102057.16;;;0.63;60.42
9110;BME280;4590;51.462;6.692;2022-12-18T20:42:09;102042.34;;;0.32;60.84
9110;BME280;4590;51.462;6.692;2022-12-18T20:44:36;102042.78;;;0.76;60.44
9110;BME280;4590;51.462;6.692;2022-12-18T20:47:02;102046.50;;;0.88;59.89
9110;BME280;4590;51.462;6.692;2022-12-18T20:49:28;102045.88;;;0.92;59.60
9110;BME280;4590;51.462;6.692;2022-12-18T20:51:55;102057.13;;;0.89;59.96
9110;BME280;4590;51.462;6.692;2022-12-18T20:54:23;102057.56;;;0.93;59.74
9110;BME280;4590;51.462;6.692;2022-12-18T20:56:49;102066.31;;;0.75;60.49
9110;BME280;4590;51.462;6.692;2022-12-18T20:59:15;102066.72;;;1.05;59.41
9110;BME280;4590;51.462;6.692;2022-12-18T21:01:40;102062.50;;;1.16;58.79
9110;BME280;4590;51.462;6.692;2022-12-18T21:04:07;102061.28;;;0.98;59.49
9110;BME280;4590;51.462;6.692;2022-12-18T21:06:33;102049.16;;;1.14;58.83
9110;BME280;4590;51.462;6.692;2022-12-18T21:08:59;102053.19;;;0.85;59.94
9110;BME280;4590;51.462;6.692;2022-12-18T21:11:27;102054.81;;;0.99;59.17
9110;BME280;4590;51.462;6.692;2022-12-18T21:19:24;102056.34;;;0.62;60.98
9110;BME280;4590;51.462;6.692;2022-12-18T21:21:50;102048.16;;;0.82;61.11
9110;BME280;4590;51.462;6.692;2022-12-18T21:24:16;102045.06;;;0.92;61.37
9110;BME280;4590;51.462;6.692;2022-12-18T21:26:41;102051.25;;;1.12;60.10
9110;BME280;4590;51.462;6.692;2022-12-18T21:29:10;102050.66;;;1.03;60.24
9110;BME280;4590;51.462;6.692;2022-12-18T21:31:37;102045.06;;;0.92;60.79
9110;BME280;4590;51.462;6.692;2022-12-18T21:34:05;102047.56;;;0.93;60.63
